createdAt,value
2023-05-19T00:00:27.115Z,12.20
2023-05-19T00:02:53.677Z,12.10
2023-05-19T00:05:20.324Z,12.00
2023-05-19T00:07:46.885Z,11.90
2023-05-19T00:10:13.379Z,11.90
2023-05-19T00:12:39.894Z,11.90
2023-05-19T00:15:06.515Z,11.90
2023-05-19T00:17:32.977Z,11.80
2023-05-19T00:19:59.479Z,11.80
2023-05-19T00:22:25.878Z,11.80
2023-05-19T00:24:52.303Z,11.80
2023-05-19T00:27:18.950Z,11.70
2023-05-19T00:29:45.376Z,11.70
2023-05-19T00:32:11.840Z,11.70
2023-05-19T00:34:38.306Z,11.70
2023-05-19T00:37:04.750Z,11.70
2023-05-19T00:39:31.186Z,11.70
2023-05-19T00:41:57.605Z,11.60
2023-05-19T00:44:24.045Z,11.60
2023-05-19T00:46:50.496Z,11.60
2023-05-19T00:49:16.992Z,11.60
2023-05-19T00:51:43.491Z,11.50
2023-05-19T00:54:09.957Z,11.40
2023-05-19T00:56:36.440Z,11.40
2023-05-19T00:59:02.949Z,11.30
2023-05-19T01:01:29.506Z,11.30
2023-05-19T01:03:56.242Z,11.30
2023-05-19T01:06:22.907Z,11.20
2023-05-19T01:08:49.381Z,11.10
2023-05-19T01:11:15.826Z,11.00
2023-05-19T01:13:42.412Z,10.90
2023-05-19T01:16:09.055Z,11.00
2023-05-19T01:18:35.556Z,10.90
2023-05-19T01:21:02.008Z,10.80
2023-05-19T01:23:28.461Z,10.80
2023-05-19T01:25:54.962Z,10.80
2023-05-19T01:28:21.412Z,10.80
2023-05-19T01:30:47.966Z,10.80
2023-05-19T01:33:14.494Z,10.70
2023-05-19T01:35:40.981Z,10.70
2023-05-19T01:38:07.487Z,10.70
2023-05-19T01:40:34.220Z,10.80
2023-05-19T01:43:01.836Z,10.80
2023-05-19T01:45:28.315Z,10.80
2023-05-19T01:47:54.822Z,10.80
2023-05-19T01:50:21.252Z,10.80
2023-05-19T01:52:47.713Z,10.80
2023-05-19T01:55:14.193Z,10.80
2023-05-19T01:57:40.646Z,10.80
2023-05-19T02:00:07.077Z,10.80
2023-05-19T02:02:33.510Z,10.80
2023-05-19T02:04:59.994Z,10.90
2023-05-19T02:07:26.490Z,10.90
2023-05-19T02:09:52.974Z,10.80
2023-05-19T02:12:19.724Z,10.90
2023-05-19T02:14:46.180Z,10.90
2023-05-19T02:17:12.649Z,10.80
2023-05-19T02:19:39.109Z,10.80
2023-05-19T02:22:05.624Z,10.80
2023-05-19T02:24:32.086Z,10.60
2023-05-19T02:26:58.552Z,10.40
2023-05-19T02:29:25.047Z,10.30
2023-05-19T02:31:51.532Z,10.20
2023-05-19T02:34:18.053Z,10.20
2023-05-19T02:36:44.561Z,10.20
2023-05-19T02:39:11.043Z,10.10
2023-05-19T02:41:37.516Z,10.10
2023-05-19T02:44:03.997Z,10.10
2023-05-19T02:46:30.553Z,10.10
2023-05-19T02:48:57.059Z,10.20
2023-05-19T02:51:23.537Z,10.20
2023-05-19T02:53:49.986Z,10.30
2023-05-19T02:56:16.466Z,10.30
2023-05-19T02:58:42.885Z,10.30
2023-05-19T03:01:09.300Z,10.30
2023-05-19T03:03:35.829Z,10.20
2023-05-19T03:06:02.393Z,10.20
2023-05-19T03:08:28.826Z,10.20
2023-05-19T03:10:55.327Z,10.20
2023-05-19T03:13:21.833Z,10.10
2023-05-19T03:15:48.370Z,10.10
2023-05-19T03:18:14.865Z,10.10
2023-05-19T03:20:41.740Z,10.10
2023-05-19T03:23:08.273Z,10.00
2023-05-19T03:25:34.729Z,10.00
2023-05-19T03:28:01.210Z,10.00
2023-05-19T03:30:27.691Z,10.10
2023-05-19T03:32:54.173Z,10.20
2023-05-19T03:35:20.705Z,10.20
2023-05-19T03:37:47.172Z,10.10
2023-05-19T03:40:13.650Z,10.10
2023-05-19T03:42:40.105Z,10.10
2023-05-19T03:45:06.526Z,10.00
2023-05-19T03:47:33.046Z,10.00
2023-05-19T03:49:59.562Z,10.00
2023-05-19T03:52:26.013Z,10.00
2023-05-19T03:54:52.500Z,9.90
2023-05-19T03:57:19.097Z,9.90
2023-05-19T03:59:45.577Z,9.80
2023-05-19T04:02:12.066Z,9.80
2023-05-19T04:04:38.602Z,9.80
2023-05-19T04:07:05.124Z,9.90
2023-05-19T04:09:31.570Z,9.90
2023-05-19T04:11:58.067Z,9.90
2023-05-19T04:14:24.568Z,9.90
2023-05-19T04:16:51.035Z,9.90
2023-05-19T04:19:18.008Z,10.00
2023-05-19T04:21:44.539Z,10.10
2023-05-19T04:24:10.988Z,10.10
2023-05-19T04:26:37.493Z,10.10
2023-05-19T04:29:04.079Z,10.20
2023-05-19T04:31:30.601Z,10.10
2023-05-19T04:33:57.082Z,10.10
2023-05-19T04:36:23.570Z,10.20
2023-05-19T04:38:50.189Z,10.30
2023-05-19T04:41:16.610Z,10.30
2023-05-19T04:43:43.087Z,10.30
2023-05-19T04:46:10.981Z,10.20
2023-05-19T04:48:39.567Z,10.30
2023-05-19T04:51:06.040Z,10.30
2023-05-19T04:53:32.466Z,10.30
2023-05-19T04:55:58.943Z,10.40
2023-05-19T04:58:25.388Z,10.50
2023-05-19T05:00:51.832Z,10.60
2023-05-19T05:03:18.458Z,10.60
2023-05-19T05:05:44.987Z,10.70
2023-05-19T05:08:11.471Z,10.80
2023-05-19T05:10:37.929Z,10.80
2023-05-19T05:13:04.398Z,10.90
2023-05-19T05:15:30.864Z,10.90
2023-05-19T05:17:57.345Z,11.00
2023-05-19T05:20:23.785Z,11.00
2023-05-19T05:22:50.221Z,11.00
2023-05-19T05:25:16.717Z,11.00
2023-05-19T05:27:43.165Z,11.10
2023-05-19T05:30:09.589Z,11.20
2023-05-19T05:32:36.156Z,11.20
2023-05-19T05:35:02.749Z,11.20
2023-05-19T05:37:29.226Z,11.30
2023-05-19T05:39:55.708Z,11.30
2023-05-19T05:42:22.134Z,11.40
2023-05-19T05:44:48.877Z,11.50
2023-05-19T05:47:15.373Z,11.50
2023-05-19T05:49:41.850Z,11.60
2023-05-19T05:52:08.274Z,11.70
2023-05-19T05:54:34.720Z,11.80
2023-05-19T05:57:01.188Z,11.90
2023-05-19T05:59:27.619Z,11.90
2023-05-19T06:01:54.103Z,12.10
2023-05-19T06:04:20.614Z,12.20
2023-05-19T06:06:47.119Z,12.20
2023-05-19T06:09:13.595Z,12.30
2023-05-19T06:11:40.110Z,12.30
2023-05-19T06:14:06.616Z,12.40
2023-05-19T06:16:33.103Z,12.50
2023-05-19T06:18:59.719Z,12.60
2023-05-19T06:21:26.213Z,12.70
2023-05-19T06:23:52.682Z,12.70
2023-05-19T06:26:19.328Z,12.80
2023-05-19T06:28:45.788Z,12.90
2023-05-19T06:31:12.260Z,13.00
2023-05-19T06:33:38.759Z,13.10
2023-05-19T06:36:05.235Z,13.20
2023-05-19T06:38:31.705Z,13.30
2023-05-19T06:40:58.185Z,13.40
2023-05-19T06:43:24.645Z,13.50
2023-05-19T06:45:53.404Z,13.60
2023-05-19T06:48:20.049Z,13.60
2023-05-19T06:50:46.621Z,13.70
2023-05-19T06:53:13.055Z,13.80
2023-05-19T06:55:54.391Z,13.90
2023-05-19T06:58:24.922Z,14.00
2023-05-19T07:00:51.384Z,14.00
2023-05-19T07:03:18.017Z,14.20
2023-05-19T07:05:44.666Z,14.30
2023-05-19T07:08:11.112Z,14.40
2023-05-19T07:10:37.632Z,14.50
2023-05-19T07:13:04.062Z,14.70
2023-05-19T07:15:30.487Z,14.90
2023-05-19T07:17:57.016Z,15.00
2023-05-19T07:20:23.528Z,15.20
2023-05-19T07:22:49.960Z,15.40
2023-05-19T07:25:16.439Z,15.40
2023-05-19T07:27:42.906Z,15.60
2023-05-19T07:30:09.435Z,15.90
2023-05-19T07:32:35.932Z,16.10
2023-05-19T07:35:02.468Z,16.20
2023-05-19T07:37:28.962Z,16.50
2023-05-19T07:39:55.376Z,16.60
2023-05-19T07:42:21.846Z,16.70
2023-05-19T07:44:48.315Z,16.90
2023-05-19T07:47:14.810Z,17.00
2023-05-19T07:49:41.254Z,17.10
2023-05-19T07:52:07.697Z,17.20
2023-05-19T07:54:34.110Z,17.30
2023-05-19T07:57:00.589Z,17.50
2023-05-19T07:59:27.049Z,17.70
2023-05-19T08:01:53.478Z,17.80
2023-05-19T08:04:20.089Z,18.10
2023-05-19T08:06:46.531Z,18.30
2023-05-19T08:09:12.998Z,18.50
2023-05-19T08:11:39.522Z,18.70
2023-05-19T08:14:06.067Z,18.90
2023-05-19T08:16:32.538Z,19.20
2023-05-19T08:18:59.048Z,19.50
2023-05-19T08:21:25.524Z,19.70
2023-05-19T08:23:51.966Z,19.90
2023-05-19T08:26:18.429Z,20.00
2023-05-19T08:28:45.022Z,20.20
2023-05-19T08:31:11.534Z,20.40
2023-05-19T08:33:38.100Z,20.50
2023-05-19T08:36:04.574Z,20.60
2023-05-19T08:38:31.068Z,20.80
2023-05-19T08:40:57.535Z,21.00
2023-05-19T08:43:23.969Z,21.20
2023-05-19T08:45:50.440Z,21.20
2023-05-19T08:48:16.976Z,21.30
2023-05-19T08:50:43.522Z,21.30
2023-05-19T08:53:18.248Z,21.40
2023-05-19T08:55:51.311Z,21.40
2023-05-19T08:58:17.775Z,21.60
2023-05-19T09:00:44.255Z,21.70
2023-05-19T09:03:18.208Z,21.90
2023-05-19T09:05:49.478Z,22.00
2023-05-19T09:08:15.935Z,22.00
2023-05-19T09:10:42.387Z,22.20
2023-05-19T09:13:08.884Z,22.30
2023-05-19T09:15:35.478Z,22.20
2023-05-19T09:18:02.138Z,22.10
2023-05-19T09:20:28.674Z,22.30
2023-05-19T09:22:55.098Z,22.50
2023-05-19T09:25:21.529Z,22.80
2023-05-19T09:27:47.960Z,23.10
2023-05-19T09:30:14.386Z,23.20
2023-05-19T09:32:40.817Z,23.30
2023-05-19T09:35:07.281Z,23.50
2023-05-19T09:37:33.779Z,23.50
2023-05-19T09:40:00.265Z,23.50
2023-05-19T09:42:26.747Z,23.60
2023-05-19T09:44:53.178Z,23.80
2023-05-19T09:47:19.664Z,23.80
2023-05-19T09:49:46.106Z,24.00
2023-05-19T09:52:12.777Z,24.30
2023-05-19T09:54:39.212Z,24.50
2023-05-19T09:57:07.756Z,24.70
2023-05-19T09:59:34.947Z,24.80
2023-05-19T10:02:01.461Z,24.70
2023-05-19T10:04:28.025Z,24.70
2023-05-19T10:06:54.498Z,24.90
2023-05-19T10:09:20.906Z,25.00
2023-05-19T10:11:47.376Z,25.10
2023-05-19T10:14:13.805Z,25.20
2023-05-19T10:16:40.336Z,25.20
2023-05-19T10:19:06.886Z,25.30
2023-05-19T10:21:33.387Z,25.50
2023-05-19T10:23:59.893Z,25.50
2023-05-19T10:26:26.350Z,25.60
2023-05-19T10:28:52.830Z,25.80
2023-05-19T10:31:19.252Z,26.00
2023-05-19T10:33:45.809Z,26.20
2023-05-19T10:36:12.252Z,26.20
2023-05-19T10:38:38.732Z,26.20
2023-05-19T10:41:05.301Z,26.00
2023-05-19T10:43:31.921Z,26.00
2023-05-19T10:45:58.418Z,26.30
2023-05-19T10:48:24.892Z,26.20
2023-05-19T10:50:51.363Z,26.40
2023-05-19T10:53:17.779Z,26.50
2023-05-19T10:55:44.314Z,26.10
2023-05-19T10:58:10.799Z,25.90
2023-05-19T11:00:37.273Z,26.10
2023-05-19T11:03:03.780Z,26.00
2023-05-19T11:05:30.334Z,25.90
2023-05-19T11:07:56.920Z,25.80
2023-05-19T11:10:23.371Z,25.90
2023-05-19T11:12:49.917Z,26.20
2023-05-19T11:15:16.349Z,26.60
2023-05-19T11:17:42.948Z,26.90
2023-05-19T11:20:09.426Z,26.90
2023-05-19T11:22:35.848Z,26.80
2023-05-19T11:25:02.353Z,26.80
2023-05-19T11:27:28.847Z,26.90
2023-05-19T11:29:55.292Z,26.70
2023-05-19T11:32:21.819Z,26.40
2023-05-19T11:34:48.285Z,26.30
2023-05-19T11:37:14.722Z,26.60
2023-05-19T11:39:41.166Z,27.00
2023-05-19T11:42:07.658Z,27.30
2023-05-19T11:44:34.138Z,27.30
2023-05-19T11:47:00.618Z,27.00
2023-05-19T11:49:27.122Z,27.00
2023-05-19T11:51:53.634Z,27.50
2023-05-19T11:54:20.209Z,28.00
2023-05-19T11:56:46.686Z,28.10
2023-05-19T11:59:13.137Z,27.40
2023-05-19T12:01:39.637Z,27.00
2023-05-19T12:04:06.241Z,26.90
2023-05-19T12:06:32.697Z,27.20
2023-05-19T12:08:59.184Z,27.50
2023-05-19T12:11:25.698Z,27.80
2023-05-19T12:13:52.185Z,28.20
2023-05-19T12:16:18.725Z,28.40
2023-05-19T12:18:45.298Z,28.40
2023-05-19T12:21:11.721Z,28.40
2023-05-19T12:23:38.192Z,28.20
2023-05-19T12:26:04.684Z,28.00
2023-05-19T12:28:31.179Z,27.70
2023-05-19T12:30:57.672Z,27.50
2023-05-19T12:33:24.139Z,27.50
2023-05-19T12:35:50.547Z,27.50
2023-05-19T12:38:16.981Z,27.50
2023-05-19T12:40:43.404Z,27.50
2023-05-19T12:43:09.860Z,27.40
2023-05-19T12:45:36.393Z,27.50
2023-05-19T12:48:02.913Z,27.90
2023-05-19T12:50:29.420Z,28.30
2023-05-19T12:52:55.893Z,28.30
2023-05-19T12:55:22.354Z,28.40
2023-05-19T12:57:50.503Z,28.50
2023-05-19T13:00:17.135Z,28.10
2023-05-19T13:02:43.705Z,27.50
2023-05-19T13:05:10.195Z,27.30
2023-05-19T13:07:36.637Z,27.20
2023-05-19T13:10:03.135Z,27.00
2023-05-19T13:12:29.616Z,26.70
2023-05-19T13:14:56.096Z,27.10
2023-05-19T13:17:22.537Z,27.50
2023-05-19T13:19:49.297Z,27.90
2023-05-19T13:22:15.850Z,28.20
2023-05-19T13:24:42.369Z,28.60
2023-05-19T13:27:08.961Z,29.10
2023-05-19T13:29:35.451Z,29.10
2023-05-19T13:32:01.878Z,28.70
2023-05-19T13:34:28.388Z,28.70
2023-05-19T13:36:54.961Z,28.50
2023-05-19T13:39:21.509Z,28.40
2023-05-19T13:41:47.940Z,28.60
2023-05-19T13:44:14.403Z,28.50
2023-05-19T13:46:45.261Z,28.30
2023-05-19T13:49:12.883Z,27.80
2023-05-19T13:51:39.332Z,28.00
2023-05-19T13:54:05.859Z,28.20
2023-05-19T13:56:32.356Z,28.50
2023-05-19T13:58:58.809Z,28.70
2023-05-19T14:01:25.615Z,29.00
2023-05-19T14:03:52.595Z,29.20
2023-05-19T14:06:19.296Z,29.20
2023-05-19T14:08:45.809Z,29.40
2023-05-19T14:11:12.295Z,29.70
2023-05-19T14:13:42.550Z,30.00
2023-05-19T14:16:09.870Z,29.90
2023-05-19T14:18:36.420Z,29.60
2023-05-19T14:21:02.906Z,28.90
2023-05-19T14:23:29.402Z,28.30
2023-05-19T14:25:55.835Z,27.80
2023-05-19T14:28:22.267Z,27.40
2023-05-19T14:30:49.273Z,27.60
2023-05-19T14:33:15.787Z,28.00
2023-05-19T14:35:42.324Z,28.10
2023-05-19T14:38:08.794Z,28.10
2023-05-19T14:40:35.427Z,28.20
2023-05-19T14:43:01.915Z,28.50
2023-05-19T14:45:28.409Z,28.80
2023-05-19T14:47:54.938Z,29.00
2023-05-19T14:50:21.499Z,28.90
2023-05-19T14:52:48.047Z,28.40
2023-05-19T14:55:14.581Z,28.00
2023-05-19T14:57:41.121Z,27.70
2023-05-19T15:00:07.591Z,27.50
2023-05-19T15:02:34.097Z,27.80
2023-05-19T15:05:00.573Z,28.00
2023-05-19T15:07:27.016Z,28.20
2023-05-19T15:09:53.548Z,28.50
2023-05-19T15:12:20.253Z,28.90
2023-05-19T15:14:46.751Z,29.00
2023-05-19T15:17:13.329Z,28.80
2023-05-19T15:19:39.841Z,28.40
2023-05-19T15:22:06.312Z,27.80
2023-05-19T15:24:32.795Z,27.80
2023-05-19T15:26:59.300Z,27.90
2023-05-19T15:29:25.805Z,27.80
2023-05-19T15:31:52.477Z,28.00
2023-05-19T15:34:19.268Z,27.90
2023-05-19T15:36:45.708Z,27.90
2023-05-19T15:39:12.147Z,27.90
2023-05-19T15:41:38.580Z,27.90
2023-05-19T15:44:05.046Z,27.80
2023-05-19T15:46:31.544Z,27.50
2023-05-19T15:48:58.144Z,27.50
2023-05-19T15:51:24.743Z,27.80
2023-05-19T15:53:53.377Z,27.80
2023-05-19T15:56:19.878Z,27.60
2023-05-19T15:58:46.333Z,27.30
2023-05-19T16:01:12.839Z,27.00
2023-05-19T16:03:39.451Z,26.80
2023-05-19T16:06:05.989Z,26.90
2023-05-19T16:08:32.450Z,27.00
2023-05-19T16:10:58.882Z,27.20
2023-05-19T16:13:25.647Z,27.20
2023-05-19T16:15:52.213Z,26.90
2023-05-19T16:18:18.980Z,26.90
2023-05-19T16:20:45.471Z,27.00
2023-05-19T16:23:11.921Z,27.00
2023-05-19T16:25:38.430Z,26.80
2023-05-19T16:28:04.859Z,26.40
2023-05-19T16:30:31.360Z,26.00
2023-05-19T16:32:58.025Z,25.70
2023-05-19T16:35:24.571Z,25.70
2023-05-19T16:37:51.109Z,25.70
2023-05-19T16:40:17.591Z,25.80
2023-05-19T16:42:44.035Z,25.80
2023-05-19T16:45:10.486Z,25.70
2023-05-19T16:47:36.980Z,25.70
2023-05-19T16:50:03.470Z,25.80
2023-05-19T16:52:29.957Z,26.00
2023-05-19T16:54:56.750Z,26.20
2023-05-19T16:57:23.248Z,26.10
2023-05-19T16:59:49.707Z,26.20
2023-05-19T17:02:16.222Z,26.10
2023-05-19T17:04:42.691Z,25.90
2023-05-19T17:07:09.140Z,25.70
2023-05-19T17:09:35.566Z,25.50
2023-05-19T17:12:02.039Z,25.40
2023-05-19T17:14:28.472Z,25.10
2023-05-19T17:16:54.988Z,24.90
2023-05-19T17:19:21.544Z,24.70
2023-05-19T17:21:48.003Z,24.70
2023-05-19T17:24:14.466Z,24.80
2023-05-19T17:26:40.948Z,24.80
2023-05-19T17:29:07.411Z,24.90
2023-05-19T17:31:33.876Z,24.90
2023-05-19T17:34:00.321Z,24.70
2023-05-19T17:36:26.832Z,24.60
2023-05-19T17:38:53.490Z,24.40
2023-05-19T17:41:19.922Z,24.10
2023-05-19T17:43:46.381Z,23.80
2023-05-19T17:46:12.949Z,23.60
2023-05-19T17:48:39.464Z,23.70
2023-05-19T17:51:05.983Z,23.80
2023-05-19T17:53:32.472Z,23.80
2023-05-19T17:55:58.935Z,23.80
2023-05-19T17:58:25.695Z,23.70
2023-05-19T18:00:52.469Z,23.60
2023-05-19T18:03:19.190Z,23.60
2023-05-19T18:05:45.749Z,23.70
2023-05-19T18:08:12.323Z,23.60
2023-05-19T18:10:38.751Z,23.50
2023-05-19T18:13:05.242Z,23.40
2023-05-19T18:15:31.759Z,23.30
2023-05-19T18:17:58.312Z,23.20
2023-05-19T18:20:24.797Z,23.10
2023-05-19T18:22:51.227Z,23.00
2023-05-19T18:25:17.697Z,22.90
2023-05-19T18:27:44.202Z,22.90
2023-05-19T18:30:10.716Z,22.80
2023-05-19T18:32:37.243Z,22.80
2023-05-19T18:35:03.729Z,22.80
2023-05-19T18:37:30.234Z,22.70
2023-05-19T18:39:56.833Z,22.70
2023-05-19T18:42:23.306Z,22.70
2023-05-19T18:44:49.772Z,22.60
2023-05-19T18:47:16.236Z,22.40
2023-05-19T18:49:42.700Z,22.30
2023-05-19T18:52:09.210Z,22.10
2023-05-19T18:54:35.684Z,22.10
2023-05-19T18:57:02.201Z,22.00
2023-05-19T18:59:28.645Z,21.90
2023-05-19T19:01:55.135Z,21.70
2023-05-19T19:04:21.799Z,21.50
2023-05-19T19:06:48.536Z,21.40
2023-05-19T19:09:14.968Z,21.30
2023-05-19T19:11:41.438Z,21.30
2023-05-19T19:14:07.946Z,21.20
2023-05-19T19:16:34.445Z,21.20
2023-05-19T19:19:01.056Z,21.00
2023-05-19T19:21:27.636Z,20.90
2023-05-19T19:23:54.074Z,20.80
2023-05-19T19:26:20.565Z,20.80
2023-05-19T19:28:47.050Z,20.70
2023-05-19T19:31:13.549Z,20.70
2023-05-19T19:33:39.987Z,20.50
2023-05-19T19:36:06.510Z,20.40
2023-05-19T19:38:33.024Z,20.40
2023-05-19T19:40:59.518Z,20.30
2023-05-19T19:43:25.993Z,20.20
2023-05-19T19:45:52.497Z,20.10
2023-05-19T19:48:18.931Z,20.00
2023-05-19T19:50:45.353Z,19.90
2023-05-19T19:53:11.810Z,19.80
2023-05-19T19:55:38.269Z,19.70
2023-05-19T19:58:04.692Z,19.50
2023-05-19T20:00:31.284Z,19.40
2023-05-19T20:03:04.977Z,19.40
2023-05-19T20:05:31.913Z,19.40
2023-05-19T20:07:58.351Z,19.30
2023-05-19T20:10:24.902Z,19.30
2023-05-19T20:12:51.591Z,19.30
2023-05-19T20:15:18.112Z,19.30
2023-05-19T20:17:44.622Z,19.20
2023-05-19T20:20:11.117Z,19.10
2023-05-19T20:22:37.549Z,18.90
2023-05-19T20:25:04.023Z,18.80
2023-05-19T20:27:30.480Z,18.70
2023-05-19T20:29:56.904Z,18.50
2023-05-19T20:32:23.391Z,18.40
2023-05-19T20:34:49.832Z,18.30
2023-05-19T20:37:16.270Z,18.20
2023-05-19T20:39:42.725Z,18.10
2023-05-19T20:42:09.187Z,18.00
2023-05-19T20:44:35.691Z,17.90
2023-05-19T20:47:02.168Z,17.80
2023-05-19T20:49:28.667Z,17.70
2023-05-19T20:51:55.147Z,17.70
2023-05-19T20:54:21.603Z,17.60
2023-05-19T20:56:48.103Z,17.60
2023-05-19T20:59:14.530Z,17.50
2023-05-19T21:01:41.068Z,17.50
2023-05-19T21:04:07.842Z,17.50
2023-05-19T21:06:34.464Z,17.50
2023-05-19T21:09:01.017Z,17.50
2023-05-19T21:11:27.499Z,17.40
2023-05-19T21:13:53.929Z,17.30
2023-05-19T21:16:20.475Z,17.20
2023-05-19T21:18:47.049Z,17.10
2023-05-19T21:21:13.569Z,17.10
2023-05-19T21:23:40.042Z,17.00
2023-05-19T21:26:06.575Z,17.00
2023-05-19T21:28:33.025Z,17.00
2023-05-19T21:30:59.515Z,17.00
2023-05-19T21:33:25.982Z,17.00
2023-05-19T21:35:52.504Z,17.00
2023-05-19T21:38:24.029Z,17.00
2023-05-19T21:40:50.727Z,16.90
2023-05-19T21:43:17.194Z,16.90
2023-05-19T21:45:43.625Z,16.90
2023-05-19T21:48:10.229Z,16.80
2023-05-19T21:50:36.767Z,16.60
2023-05-19T21:53:03.239Z,16.60
2023-05-19T21:55:29.747Z,16.60
2023-05-19T21:57:56.245Z,16.50
2023-05-19T22:00:22.711Z,16.50
2023-05-19T22:02:49.301Z,16.50
2023-05-19T22:05:15.872Z,16.50
2023-05-19T22:07:42.337Z,16.50
2023-05-19T22:10:08.780Z,16.50
2023-05-19T22:12:35.199Z,16.40
2023-05-19T22:15:01.631Z,16.40
2023-05-19T22:17:28.120Z,16.30
2023-05-19T22:19:54.676Z,16.30
2023-05-19T22:22:21.167Z,16.20
2023-05-19T22:24:47.673Z,16.20
2023-05-19T22:27:14.141Z,16.20
2023-05-19T22:29:40.592Z,16.20
2023-05-19T22:32:07.020Z,16.20
2023-05-19T22:34:33.481Z,16.20
2023-05-19T22:36:59.970Z,16.20
2023-05-19T22:39:26.554Z,16.20
2023-05-19T22:41:53.038Z,16.20
2023-05-19T22:44:19.547Z,16.20
2023-05-19T22:46:46.080Z,16.20
2023-05-19T22:49:12.567Z,16.20
2023-05-19T22:51:39.072Z,16.10
2023-05-19T22:54:05.520Z,16.10
2023-05-19T22:56:31.972Z,16.00
2023-05-19T22:58:58.424Z,16.00
2023-05-19T23:01:24.953Z,16.00
2023-05-19T23:03:51.541Z,16.00
2023-05-19T23:06:18.016Z,16.00
2023-05-19T23:08:44.898Z,15.90
2023-05-19T23:11:12.555Z,16.00
2023-05-19T23:13:39.071Z,16.00
2023-05-19T23:16:05.572Z,16.00
2023-05-19T23:18:32.036Z,15.90
2023-05-19T23:20:58.514Z,15.90
2023-05-19T23:23:25.034Z,15.90
2023-05-19T23:25:51.513Z,15.90
2023-05-19T23:28:17.990Z,15.90
2023-05-19T23:30:44.495Z,15.80
2023-05-19T23:33:11.049Z,15.80
2023-05-19T23:35:37.557Z,15.80
2023-05-19T23:38:04.030Z,15.80
2023-05-19T23:40:30.539Z,15.80
2023-05-19T23:42:56.994Z,15.70
2023-05-19T23:45:23.472Z,15.70
2023-05-19T23:47:50.047Z,15.70
2023-05-19T23:50:16.526Z,15.60
2023-05-19T23:52:43.041Z,15.60
2023-05-19T23:55:09.464Z,15.50
2023-05-19T23:57:35.917Z,15.60
